Time;durP1;ratioP1;P1;durP2;ratioP2;P2;SDS_P1;SDS_P2;PMS_P1;PMS_P2;Temp;Humidity;BMP_temperature;BMP_pressure;BME280_temperature;BME280_humidity;BME280_pressure;Samples;Min_cycle;Max_cycle;Signal;HPM_P1;HPM_P2
2021/06/26 00:02:11;;;;;;;9.93;2.10;;;13.70;90.40;;;;;;5011291;28;20472;-77
2021/06/26 00:04:38;;;;;;;11.32;1.98;;;13.60;90.50;;;;;;5043055;28;20055;-78
2021/06/26 00:07:03;;;;;;;7.72;2.50;;;13.60;90.60;;;;;;5043049;28;20117;-78
2021/06/26 00:09:29;;;;;;;7.28;2.15;;;13.60;90.70;;;;;;5042769;28;20599;-78
2021/06/26 00:11:55;;;;;;;11.73;3.55;;;13.50;90.70;;;;;;5043015;28;20030;-77
2021/06/26 00:14:21;;;;;;;10.93;2.30;;;13.60;90.80;;;;;;5043061;28;20025;-78
2021/06/26 00:16:46;;;;;;;9.45;2.05;;;13.60;90.80;;;;;;5010045;28;20026;-75
2021/06/26 00:19:12;;;;;;;10.95;2.30;;;13.50;90.90;;;;;;5059688;28;20120;-77
2021/06/26 00:21:38;;;;;;;10.55;2.30;;;13.50;90.90;;;;;;5011261;28;20045;-78
2021/06/26 00:24:04;;;;;;;9.73;2.20;;;13.50;90.90;;;;;;5011154;28;20033;-76
2021/06/26 00:26:30;;;;;;;14.45;2.78;;;13.50;91.00;;;;;;5011227;28;20045;-77
2021/06/26 00:28:55;;;;;;;12.45;2.95;;;13.50;91.00;;;;;;5011180;28;20488;-78
2021/06/26 00:31:21;;;;;;;13.80;2.33;;;13.50;90.90;;;;;;5042667;28;20443;-78
2021/06/26 00:33:47;;;;;;;7.88;1.80;;;13.40;90.90;;;;;;5026129;28;20030;-77
2021/06/26 00:36:13;;;;;;;11.75;2.22;;;13.40;91.00;;;;;;5009786;28;20424;-77
2021/06/26 00:38:39;;;;;;;9.38;2.17;;;13.30;91.10;;;;;;5009736;28;20022;-78
2021/06/26 00:41:05;;;;;;;6.75;1.92;;;13.30;91.20;;;;;;5010063;28;20384;-78
2021/06/26 00:43:31;;;;;;;13.88;2.70;;;13.20;91.30;;;;;;5043102;28;20030;-77
2021/06/26 00:45:58;;;;;;;7.97;2.50;;;13.20;91.50;;;;;;5009659;28;20030;-76
2021/06/26 00:48:24;;;;;;;12.25;2.78;;;13.20;91.60;;;;;;5009772;28;20128;-78
2021/06/26 00:50:50;;;;;;;8.32;2.28;;;13.20;91.70;;;;;;5011021;28;20101;-77
2021/06/26 00:53:15;;;;;;;11.35;2.65;;;13.20;91.70;;;;;;5010808;28;20037;-78
2021/06/26 00:55:51;;;;;;;13.77;2.33;;;13.20;91.70;;;;;;5042598;28;20034;-78
2021/06/26 00:58:17;;;;;;;10.10;2.30;;;13.20;91.70;;;;;;5011041;28;20049;-77
2021/06/26 01:00:43;;;;;;;12.73;2.83;;;13.20;91.70;;;;;;5059945;28;20037;-77
2021/06/26 01:03:09;;;;;;;7.20;2.15;;;13.20;91.70;;;;;;5046185;28;20477;-76
2021/06/26 01:05:35;;;;;;;8.27;2.78;;;13.20;91.70;;;;;;5046346;28;20116;-78
2021/06/26 01:08:01;;;;;;;11.30;2.47;;;13.20;91.70;;;;;;5013270;28;20429;-77
2021/06/26 01:10:27;;;;;;;12.13;2.33;;;13.20;91.80;;;;;;5046321;28;20165;-77
2021/06/26 01:12:53;;;;;;;12.80;2.70;;;13.20;91.80;;;;;;5045946;28;20052;-78
2021/06/26 01:15:19;;;;;;;8.88;2.15;;;13.20;91.90;;;;;;5013172;28;20504;-78
2021/06/26 01:17:46;;;;;;;7.72;2.13;;;13.20;92.00;;;;;;5029495;28;20030;-77
2021/06/26 01:20:13;;;;;;;8.07;2.33;;;13.20;92.00;;;;;;5012949;28;20077;-78
2021/06/26 01:22:46;;;;;;;12.23;2.65;;;13.20;92.00;;;;;;5046070;28;20033;-77
2021/06/26 01:25:15;;;;;;;12.25;3.85;;;13.20;91.90;;;;;;5046213;28;20045;-77
2021/06/26 01:27:42;;;;;;;11.02;3.05;;;13.20;91.90;;;;;;5014152;28;20050;-78
2021/06/26 01:30:09;;;;;;;13.20;2.95;;;13.20;91.90;;;;;;5029290;28;20109;-78
2021/06/26 01:32:35;;;;;;;8.18;2.55;;;13.10;91.90;;;;;;5045900;28;20128;-77
2021/06/26 01:35:01;;;;;;;16.73;2.78;;;13.10;91.90;;;;;;5014148;28;20026;-77
2021/06/26 01:37:27;;;;;;;8.30;2.90;;;13.10;91.90;;;;;;5045820;28;20027;-78
2021/06/26 01:39:53;;;;;;;9.60;2.28;;;13.00;92.00;;;;;;5045969;28;20022;-78
2021/06/26 01:42:18;;;;;;;7.82;2.88;;;13.00;92.10;;;;;;5062447;28;20543;-78
2021/06/26 01:44:44;;;;;;;11.85;2.60;;;12.90;92.20;;;;;;5045556;28;20040;-77
2021/06/26 01:47:10;;;;;;;11.73;2.63;;;12.90;92.30;;;;;;5045570;28;20037;-77
2021/06/26 01:49:38;;;;;;;12.80;3.50;;;13.00;92.30;;;;;;5062278;28;20484;-77
2021/06/26 01:52:04;;;;;;;10.45;2.50;;;13.00;92.30;;;;;;5013729;28;20026;-77
2021/06/26 01:54:31;;;;;;;9.68;3.13;;;13.00;92.30;;;;;;5045725;28;20029;-77
2021/06/26 01:56:56;;;;;;;10.13;2.78;;;13.00;92.40;;;;;;5028840;28;20040;-77
2021/06/26 01:59:22;;;;;;;7.43;2.47;;;13.00;92.40;;;;;;5045397;28;20093;-78
2021/06/26 02:01:48;;;;;;;10.68;3.17;;;13.10;92.40;;;;;;5045178;28;20396;-78
2021/06/26 02:04:13;;;;;;;10.07;2.88;;;13.20;92.50;;;;;;5028560;28;20228;-77
2021/06/26 02:06:39;;;;;;;9.90;3.05;;;13.20;92.40;;;;;;5045485;28;20057;-78
2021/06/26 02:09:07;;;;;;;8.30;2.20;;;13.30;92.40;;;;;;5028712;28;20032;-77
2021/06/26 02:11:33;;;;;;;13.55;2.75;;;13.30;92.20;;;;;;5044936;28;20033;-78
2021/06/26 02:13:59;;;;;;;8.25;2.47;;;13.30;92.20;;;;;;5045052;28;20045;-77
2021/06/26 02:16:24;;;;;;;6.47;2.20;;;13.20;92.20;;;;;;5045172;28;20018;-77
2021/06/26 02:18:50;;;;;;;6.80;2.55;;;13.20;92.30;;;;;;5045183;28;20058;-78
2021/06/26 02:21:16;;;;;;;13.52;2.53;;;13.20;92.30;;;;;;5045008;28;20069;-78
2021/06/26 02:23:41;;;;;;;7.30;1.90;;;13.20;92.20;;;;;;5013063;28;20495;-78
2021/06/26 02:26:07;;;;;;;9.35;2.75;;;13.20;92.10;;;;;;5044749;28;20042;-79
2021/06/26 02:28:33;;;;;;;6.57;2.40;;;13.20;92.30;;;;;;5044930;28;20508;-78
2021/06/26 02:30:59;;;;;;;11.13;2.38;;;13.20;92.10;;;;;;5044753;28;20065;-78
2021/06/26 02:33:24;;;;;;;7.20;2.05;;;13.20;92.10;;;;;;5044583;28;20041;-77
2021/06/26 02:35:50;;;;;;;8.60;2.75;;;13.20;92.00;;;;;;5028205;28;20065;-78
2021/06/26 02:38:16;;;;;;;5.43;2.30;;;13.10;92.00;;;;;;5012934;28;20033;-77
2021/06/26 02:40:42;;;;;;;6.18;1.98;;;13.10;91.90;;;;;;5044778;28;20412;-77
2021/06/26 02:43:07;;;;;;;6.90;1.88;;;13.10;91.90;;;;;;5027950;28;20480;-78
2021/06/26 02:45:33;;;;;;;4.32;1.73;;;13.10;91.90;;;;;;5061168;28;20041;-78
2021/06/26 02:47:58;;;;;;;10.15;2.05;;;12.90;92.00;;;;;;5044494;28;20317;-78
2021/06/26 02:50:24;;;;;;;4.90;1.70;;;12.90;92.00;;;;;;5044474;28;20030;-79
2021/06/26 02:52:50;;;;;;;5.93;1.98;;;12.80;92.00;;;;;;5012586;28;20044;-79
2021/06/26 02:55:16;;;;;;;5.20;1.95;;;12.70;92.00;;;;;;5044407;28;20032;-78
2021/06/26 02:57:41;;;;;;;6.57;2.10;;;12.60;92.00;;;;;;5012558;28;20030;-78
2021/06/26 03:00:09;;;;;;;6.00;2.70;;;12.50;92.00;;;;;;5044289;28;20079;-78
2021/06/26 03:02:35;;;;;;;6.38;2.22;;;12.40;92.10;;;;;;5012370;28;20022;-78
2021/06/26 03:05:01;;;;;;;4.35;2.10;;;12.40;92.30;;;;;;5044174;28;20029;-78
2021/06/26 03:07:26;;;;;;;6.38;2.20;;;12.30;92.40;;;;;;5043983;28;20022;-78
2021/06/26 03:09:52;;;;;;;7.93;2.92;;;12.30;92.50;;;;;;5043733;28;20145;-78
2021/06/26 03:12:18;;;;;;;11.35;2.80;;;12.20;92.50;;;;;;5010881;28;20034;-77
2021/06/26 03:14:43;;;;;;;6.90;2.50;;;12.20;92.50;;;;;;5027498;28;20037;-78
2021/06/26 03:17:10;;;;;;;6.53;2.60;;;12.20;92.50;;;;;;5043857;28;20036;-78
2021/06/26 03:19:36;;;;;;;6.88;2.75;;;12.20;92.60;;;;;;5043625;28;20117;-79
2021/06/26 03:22:02;;;;;;;5.25;2.00;;;12.20;92.70;;;;;;5010740;28;20022;-78
2021/06/26 03:24:28;;;;;;;7.60;2.38;;;12.20;92.70;;;;;;5010104;28;20034;-78
2021/06/26 03:26:55;;;;;;;5.70;2.45;;;12.30;92.70;;;;;;5043788;28;20412;-79
2021/06/26 03:29:21;;;;;;;8.55;3.33;;;12.40;92.70;;;;;;5043410;28;20109;-79
2021/06/26 03:31:47;;;;;;;6.70;2.30;;;12.40;92.70;;;;;;5011923;28;20101;-79
2021/06/26 03:34:13;;;;;;;7.55;2.90;;;12.50;92.70;;;;;;5043612;28;20030;-79
2021/06/26 03:36:39;;;;;;;9.60;2.70;;;12.60;92.70;;;;;;5043695;28;20030;-78
2021/06/26 03:39:05;;;;;;;4.55;2.05;;;12.70;92.60;;;;;;5011733;28;20459;-77
2021/06/26 03:41:30;;;;;;;6.60;2.55;;;12.70;92.60;;;;;;5011751;28;20499;-77
2021/06/26 03:43:58;;;;;;;8.88;2.55;;;12.70;92.60;;;;;;5026809;28;20030;-79
2021/06/26 03:46:25;;;;;;;9.63;3.30;;;12.70;92.50;;;;;;5010454;28;20026;-79
2021/06/26 03:48:50;;;;;;;9.35;3.05;;;12.70;92.50;;;;;;5011686;28;20030;-79
2021/06/26 03:51:16;;;;;;;6.53;2.40;;;12.70;92.40;;;;;;5043267;28;20029;-79
2021/06/26 03:53:42;;;;;;;5.20;2.50;;;12.80;92.40;;;;;;5043408;28;20067;-77
2021/06/26 03:56:08;;;;;;;8.60;2.90;;;12.80;92.30;;;;;;5011693;28;20041;-78
2021/06/26 03:58:34;;;;;;;9.25;3.17;;;12.80;92.30;;;;;;5043381;28;20030;-79
2021/06/26 04:01:00;;;;;;;5.40;2.47;;;12.80;92.30;;;;;;5043229;28;20456;-78
2021/06/26 04:03:25;;;;;;;5.30;2.60;;;12.80;92.30;;;;;;5026663;28;20026;-77
2021/06/26 04:05:51;;;;;;;6.45;3.00;;;12.80;92.40;;;;;;5043199;28;20495;-79
2021/06/26 04:08:17;;;;;;;5.95;2.33;;;12.90;92.40;;;;;;5011535;28;20404;-78
2021/06/26 04:10:44;;;;;;;7.55;2.97;;;13.00;92.40;;;;;;5009969;28;20073;-77
2021/06/26 04:13:09;;;;;;;5.90;2.70;;;13.00;92.40;;;;;;5043049;28;20480;-77
2021/06/26 04:15:36;;;;;;;5.47;2.47;;;13.00;92.40;;;;;;5010190;28;20038;-78
2021/06/26 04:18:02;;;;;;;7.53;3.13;;;13.00;92.40;;;;;;5011521;28;20029;-78
2021/06/26 04:20:28;;;;;;;6.05;2.40;;;13.00;92.50;;;;;;5043063;28;20038;-79
2021/06/26 04:22:54;;;;;;;7.97;3.00;;;13.00;92.60;;;;;;5011245;28;20073;-79
2021/06/26 04:25:20;;;;;;;4.78;2.60;;;13.10;92.50;;;;;;5011264;28;20026;-77
2021/06/26 04:27:46;;;;;;;7.43;2.90;;;13.10;92.50;;;;;;5011328;28;20026;-78
2021/06/26 04:30:13;;;;;;;13.82;2.80;;;13.10;92.50;;;;;;5010081;28;20030;-79
2021/06/26 04:32:40;;;;;;;5.35;2.38;;;13.10;92.60;;;;;;5011051;28;20037;-79
2021/06/26 04:35:12;;;;;;;5.63;2.60;;;13.10;92.60;;;;;;5027579;28;20026;-79
2021/06/26 04:37:38;;;;;;;7.60;3.03;;;13.10;92.70;;;;;;5047256;28;20362;-78
2021/06/26 04:40:05;;;;;;;7.32;2.45;;;13.10;92.70;;;;;;5046975;28;20124;-79
2021/06/26 04:42:30;;;;;;;10.07;2.80;;;13.10;92.80;;;;;;5013565;28;20030;-79
2021/06/26 04:44:57;;;;;;;5.82;2.63;;;13.10;92.80;;;;;;5046889;28;20081;-78
2021/06/26 04:47:24;;;;;;;10.00;3.60;;;13.10;92.90;;;;;;5046587;28;20480;-78
2021/06/26 04:49:50;;;;;;;6.63;2.70;;;13.10;92.90;;;;;;5013781;28;20540;-78
2021/06/26 04:52:16;;;;;;;7.55;2.30;;;13.10;92.90;;;;;;5046715;28;20121;-79
2021/06/26 04:54:42;;;;;;;7.38;3.38;;;13.30;93.00;;;;;;5014962;28;20030;-79
2021/06/26 04:57:08;;;;;;;5.53;2.50;;;13.30;92.80;;;;;;5029988;28;20037;-77
2021/06/26 04:59:33;;;;;;;11.75;3.10;;;13.30;92.80;;;;;;5046498;28;20477;-78
2021/06/26 05:01:59;;;;;;;10.00;2.38;;;13.40;92.80;;;;;;5046476;28;20033;-79
2021/06/26 05:04:25;;;;;;;6.13;2.00;;;13.40;92.80;;;;;;5046569;28;20030;-79
2021/06/26 05:06:51;;;;;;;9.13;2.58;;;13.40;92.80;;;;;;5046598;28;20030;-78
2021/06/26 05:09:16;;;;;;;6.78;2.45;;;13.40;92.80;;;;;;5029640;28;20030;-78
2021/06/26 05:11:42;;;;;;;6.57;1.95;;;13.50;92.80;;;;;;5046424;28;20064;-79
2021/06/26 05:14:09;;;;;;;4.03;2.08;;;13.50;92.90;;;;;;5046252;28;20053;-79
2021/06/26 05:16:35;;;;;;;6.28;2.17;;;13.60;92.90;;;;;;5029609;28;20075;-79
2021/06/26 05:19:00;;;;;;;6.70;2.05;;;13.70;92.80;;;;;;5013310;28;20037;-79
2021/06/26 05:21:26;;;;;;;6.40;1.85;;;13.80;92.80;;;;;;5045990;28;20405;-79
2021/06/26 05:23:53;;;;;;;9.50;3.13;;;13.80;92.70;;;;;;5014116;28;20041;-79
2021/06/26 05:26:18;;;;;;;4.65;1.88;;;13.90;92.70;;;;;;5012972;28;20480;-78
2021/06/26 05:28:44;;;;;;;8.15;2.70;;;13.90;92.70;;;;;;5046086;28;20045;-78
2021/06/26 05:31:10;;;;;;;6.10;2.00;;;14.00;92.70;;;;;;5046131;28;20029;-78
2021/06/26 05:33:36;;;;;;;7.32;1.77;;;14.10;92.70;;;;;;5029286;28;20577;-79
2021/06/26 05:36:02;;;;;;;6.63;2.25;;;14.20;92.50;;;;;;5014107;28;20550;-78
2021/06/26 05:38:28;;;;;;;9.57;2.45;;;14.20;92.40;;;;;;5029304;28;20161;-78
2021/06/26 05:40:53;;;;;;;6.13;2.60;;;14.20;92.50;;;;;;5045744;28;20039;-78
2021/06/26 05:43:19;;;;;;;7.47;2.03;;;14.20;92.40;;;;;;5029036;28;20034;-79
2021/06/26 05:45:45;;;;;;;8.20;2.40;;;14.20;92.30;;;;;;5045767;28;20048;-79
2021/06/26 05:48:10;;;;;;;5.20;1.80;;;14.20;92.20;;;;;;5028273;28;20029;-79
2021/06/26 05:50:36;;;;;;;5.82;2.35;;;14.30;92.30;;;;;;5013843;28;20469;-79
2021/06/26 05:53:02;;;;;;;5.13;1.80;;;14.30;92.20;;;;;;5045277;28;20477;-79
2021/06/26 05:55:29;;;;;;;3.80;1.90;;;14.40;92.10;;;;;;5013755;28;20511;-78
2021/06/26 05:57:55;;;;;;;3.92;1.92;;;14.40;92.00;;;;;;5012363;28;20061;-78
2021/06/26 06:00:22;;;;;;;6.20;1.80;;;14.30;92.00;;;;;;5013668;28;20061;-78
2021/06/26 06:02:49;;;;;;;6.80;2.42;;;14.20;92.20;;;;;;5045070;28;20061;-78
2021/06/26 06:05:16;;;;;;;8.82;2.38;;;14.20;92.20;;;;;;5061938;28;20050;-79
2021/06/26 06:07:43;;;;;;;6.93;2.30;;;14.10;92.20;;;;;;5013416;28;20088;-79
2021/06/26 06:10:10;;;;;;;10.57;2.95;;;14.10;92.20;;;;;;5044907;28;20286;-79
2021/06/26 06:12:37;;;;;;;7.13;2.78;;;14.20;92.20;;;;;;5011932;28;20034;-79
2021/06/26 06:15:05;;;;;;;6.10;2.85;;;14.30;92.10;;;;;;5044753;28;20409;-79
2021/06/26 06:17:31;;;;;;;8.38;3.13;;;14.30;92.00;;;;;;5013025;28;20048;-78
2021/06/26 06:19:57;;;;;;;9.50;3.40;;;14.40;91.90;;;;;;5045014;28;20030;-77
2021/06/26 06:22:24;;;;;;;6.50;2.90;;;14.50;91.80;;;;;;5061300;28;20111;-78
2021/06/26 06:24:50;;;;;;;7.50;3.20;;;14.50;91.70;;;;;;5044525;28;20026;-78
2021/06/26 06:27:16;;;;;;;6.25;3.08;;;14.50;91.70;;;;;;5013069;28;20056;-79
2021/06/26 06:29:42;;;;;;;3.60;2.40;;;14.60;91.60;;;;;;5011916;28;20110;-79
2021/06/26 06:32:08;;;;;;;6.20;2.42;;;14.60;91.40;;;;;;5061599;28;20088;-78
2021/06/26 06:34:34;;;;;;;5.40;1.90;;;14.60;91.30;;;;;;5012952;28;20429;-79
2021/06/26 06:36:59;;;;;;;5.65;2.35;;;14.60;91.30;;;;;;5044717;28;20057;-77
2021/06/26 06:39:26;;;;;;;4.78;2.25;;;14.60;91.20;;;;;;5027857;28;20129;-78
2021/06/26 06:41:52;;;;;;;3.35;1.52;;;14.60;91.20;;;;;;5060674;28;20037;-79
2021/06/26 06:44:18;;;;;;;3.45;1.60;;;14.60;91.10;;;;;;5012760;28;20409;-79
2021/06/26 06:46:43;;;;;;;5.20;1.65;;;14.50;91.10;;;;;;5011507;28;20038;-78
2021/06/26 06:49:09;;;;;;;7.40;1.65;;;14.50;91.10;;;;;;5061133;28;20045;-79
2021/06/26 06:51:36;;;;;;;2.22;1.10;;;14.50;91.00;;;;;;5044268;28;20030;-78
2021/06/26 06:54:02;;;;;;;4.50;1.60;;;14.50;90.90;;;;;;5044323;28;20026;-79
2021/06/26 06:56:28;;;;;;;4.97;1.50;;;14.50;90.90;;;;;;5044274;28;20030;-77
2021/06/26 06:58:54;;;;;;;4.75;1.38;;;14.50;90.90;;;;;;5026529;28;20037;-79
2021/06/26 07:01:19;;;;;;;4.63;1.42;;;14.60;90.90;;;;;;5044322;28;20038;-79
2021/06/26 07:03:45;;;;;;;3.78;1.75;;;14.70;90.90;;;;;;5044078;28;20022;-79
2021/06/26 07:06:11;;;;;;;3.63;1.27;;;14.70;90.90;;;;;;5044775;28;20133;-78
2021/06/26 07:08:36;;;;;;;2.47;1.42;;;14.80;90.80;;;;;;5027481;28;20386;-79
2021/06/26 07:11:02;;;;;;;6.53;1.73;;;14.90;90.80;;;;;;5012349;28;20045;-77
2021/06/26 07:13:28;;;;;;;4.45;2.15;;;14.90;90.60;;;;;;5043804;28;20038;-79
2021/06/26 07:15:53;;;;;;;4.50;1.80;;;14.90;90.60;;;;;;5060713;28;20036;-76
2021/06/26 07:18:19;;;;;;;3.70;1.42;;;14.90;90.50;;;;;;5010858;28;20057;-79
2021/06/26 07:20:45;;;;;;;6.28;1.92;;;14.90;90.50;;;;;;5060543;28;20037;-79
2021/06/26 07:23:10;;;;;;;4.45;1.75;;;14.90;90.50;;;;;;5043674;28;20566;-78
2021/06/26 07:25:36;;;;;;;3.80;1.95;;;14.90;90.50;;;;;;5027138;28;20033;-79
2021/06/26 07:28:02;;;;;;;3.55;1.80;;;14.90;90.60;;;;;;5044010;28;20054;-77
2021/06/26 07:30:27;;;;;;;5.68;1.90;;;14.90;90.60;;;;;;5043699;28;20038;-78
2021/06/26 07:32:53;;;;;;;6.75;1.73;;;14.90;90.60;;;;;;5011934;28;20034;-80
2021/06/26 07:35:19;;;;;;;3.85;1.50;;;15.00;90.60;;;;;;5043545;28;20116;-79
2021/06/26 07:37:45;;;;;;;3.95;1.73;;;15.00;90.50;;;;;;5043253;28;20030;-78
2021/06/26 07:40:13;;;;;;;5.85;1.90;;;15.00;90.50;;;;;;5043485;28;20030;-77
2021/06/26 07:42:40;;;;;;;5.35;1.98;;;15.00;90.50;;;;;;5009938;28;20068;-78
2021/06/26 07:45:07;;;;;;;4.25;1.38;;;15.00;90.50;;;;;;5043630;28;20022;-79
2021/06/26 07:47:33;;;;;;;3.90;2.00;;;15.10;90.60;;;;;;5011725;28;20032;-79
2021/06/26 07:49:59;;;;;;;2.92;1.45;;;15.20;90.60;;;;;;5011590;28;20029;-78
2021/06/26 07:52:25;;;;;;;6.07;1.98;;;15.20;90.50;;;;;;5026592;28;20021;-77
2021/06/26 07:54:51;;;;;;;3.63;1.45;;;15.20;90.40;;;;;;5043416;28;20026;-79
2021/06/26 07:57:17;;;;;;;4.07;1.20;;;15.20;90.50;;;;;;5060011;28;20041;-79
2021/06/26 07:59:42;;;;;;;6.70;1.77;;;15.30;90.60;;;;;;5042962;28;20429;-79
2021/06/26 08:02:08;;;;;;;10.13;2.05;;;15.50;90.70;;;;;;5042653;28;20041;-79
2021/06/26 08:04:34;;;;;;;5.82;1.60;;;15.70;90.60;;;;;;5059907;28;20097;-79
2021/06/26 08:07:00;;;;;;;5.63;1.30;;;15.80;90.50;;;;;;5059453;28;20048;-79
2021/06/26 08:09:25;;;;;;;2.58;1.20;;;16.00;90.40;;;;;;5042409;28;20056;-79
2021/06/26 08:11:51;;;;;;;8.75;1.35;;;16.20;90.30;;;;;;5043145;28;20038;-78
2021/06/26 08:14:17;;;;;;;8.02;1.20;;;16.50;90.20;;;;;;5043105;28;20535;-77
2021/06/26 08:16:42;;;;;;;4.85;1.25;;;16.70;90.00;;;;;;5042913;28;20073;-79
2021/06/26 08:19:08;;;;;;;3.40;1.65;;;16.90;89.70;;;;;;5009802;28;20026;-79
2021/06/26 08:21:34;;;;;;;2.35;1.23;;;17.20;89.20;;;;;;5042914;28;20028;-78
2021/06/26 08:23:59;;;;;;;3.65;0.90;;;17.40;88.00;;;;;;5010991;28;20108;-79
2021/06/26 08:26:25;;;;;;;8.32;1.20;;;17.60;87.30;;;;;;5042941;28;20022;-79
2021/06/26 08:28:51;;;;;;;4.07;1.10;;;17.80;86.90;;;;;;5043054;28;20124;-80
2021/06/26 08:31:16;;;;;;;7.30;1.67;;;18.10;85.90;;;;;;5010985;28;20026;-79
2021/06/26 08:33:42;;;;;;;4.78;1.33;;;18.20;84.70;;;;;;5042634;28;20465;-78
2021/06/26 08:36:08;;;;;;;3.33;1.10;;;18.00;83.90;;;;;;5010733;28;20387;-79
2021/06/26 08:38:35;;;;;;;2.95;1.42;;;17.80;83.60;;;;;;5026176;28;20030;-79
2021/06/26 08:41:01;;;;;;;3.00;0.82;;;17.70;83.90;;;;;;5011078;28;20026;-78
2021/06/26 08:43:27;;;;;;;4.75;0.80;;;17.70;84.00;;;;;;5010658;28;20197;-79
2021/06/26 08:45:54;;;;;;;5.13;0.95;;;17.60;83.60;;;;;;5025670;28;20053;-78
2021/06/26 08:48:20;;;;;;;2.95;0.95;;;17.50;83.50;;;;;;5042312;28;20032;-79
2021/06/26 08:50:46;;;;;;;2.35;0.85;;;17.30;83.70;;;;;;5009294;28;20026;-78
2021/06/26 08:53:12;;;;;;;2.40;0.77;;;17.20;84.20;;;;;;5025675;28;20374;-80
2021/06/26 08:55:38;;;;;;;6.28;1.02;;;17.10;83.80;;;;;;5042699;28;20045;-78
2021/06/26 08:58:04;;;;;;;4.35;0.70;;;17.10;84.00;;;;;;5009355;28;20084;-79
2021/06/26 09:00:31;;;;;;;4.53;0.73;;;17.10;84.40;;;;;;5010646;28;20022;-78
2021/06/26 09:03:10;;;;;;;2.15;0.98;;;17.30;84.60;;;;;;5042207;28;20049;-79
2021/06/26 09:05:36;;;;;;;2.50;0.70;;;17.50;83.90;;;;;;5010894;28;20072;-79
2021/06/26 09:08:13;;;;;;;3.72;1.63;;;17.80;83.80;;;;;;5026128;28;20117;-78
2021/06/26 09:10:42;;;;;;;3.60;0.65;;;18.10;83.10;;;;;;5027063;28;20452;-79
2021/06/26 09:13:14;;;;;;;2.65;0.85;;;18.30;82.20;;;;;;5011716;28;20041;-78
2021/06/26 09:15:40;;;;;;;4.10;0.80;;;18.50;81.70;;;;;;5011689;28;20030;-78
2021/06/26 09:18:18;;;;;;;3.78;0.90;;;18.60;81.30;;;;;;5044464;28;20033;-79
2021/06/26 09:20:48;;;;;;;3.40;0.70;;;18.60;80.70;;;;;;5011705;28;20470;-78
2021/06/26 09:23:34;;;;;;;6.63;1.10;;;18.60;80.20;;;;;;5015798;28;20034;-79
2021/06/26 09:26:10;;;;;;;1.20;0.70;;;18.50;79.80;;;;;;5015199;28;20479;-79
2021/06/26 09:28:36;;;;;;;1.77;0.70;;;18.50;79.70;;;;;;5048409;28;20887;-78
2021/06/26 09:31:03;;;;;;;1.75;1.20;;;18.30;79.40;;;;;;5047473;28;20026;-78
2021/06/26 09:33:29;;;;;;;2.17;0.60;;;18.20;79.70;;;;;;5040972;28;20027;-79
2021/06/26 09:36:05;;;;;;;3.67;1.15;;;18.30;79.60;;;;;;5014707;28;20026;-79
2021/06/26 09:38:32;;;;;;;1.90;0.68;;;18.30;79.50;;;;;;5015845;28;20033;-77
2021/06/26 09:41:11;;;;;;;2.17;0.60;;;18.30;79.30;;;;;;5028473;28;20026;-79
2021/06/26 09:43:37;;;;;;;3.45;0.60;;;18.20;79.00;;;;;;5015473;28;20022;-79
2021/06/26 09:46:17;;;;;;;4.22;0.75;;;18.20;79.40;;;;;;5064166;28;20030;-78
2021/06/26 09:48:53;;;;;;;3.42;1.00;;;18.30;79.30;;;;;;5008465;28;20026;-80
2021/06/26 09:51:27;;;;;;;2.40;0.60;;;18.30;79.00;;;;;;5003890;28;20416;-79
2021/06/26 09:54:09;;;;;;;2.97;0.70;;;18.40;78.90;;;;;;5025130;28;20023;-78
2021/06/26 09:56:47;;;;;;;8.32;0.88;;;18.70;79.30;;;;;;4998846;28;20036;-78
2021/06/26 09:59:16;;;;;;;4.47;1.25;;;18.90;78.50;;;;;;5009115;28;20029;-77
2021/06/26 10:01:45;;;;;;;2.00;0.75;;;19.20;78.70;;;;;;4996210;28;20381;-78
2021/06/26 10:04:12;;;;;;;3.95;0.82;;;19.70;77.90;;;;;;4996606;28;20424;-79
2021/06/26 10:06:39;;;;;;;1.92;0.95;;;19.90;76.50;;;;;;5010578;28;20026;-78
2021/06/26 10:09:05;;;;;;;3.95;1.10;;;19.90;75.60;;;;;;4994796;28;20029;-78
2021/06/26 10:11:33;;;;;;;4.00;0.90;;;19.80;75.10;;;;;;5010396;28;20042;-78
2021/06/26 10:14:07;;;;;;;3.08;0.80;;;19.70;75.00;;;;;;5010643;28;20030;-79
2021/06/26 10:16:35;;;;;;;4.03;0.70;;;19.60;74.80;;;;;;5010675;28;20033;-79
2021/06/26 10:19:04;;;;;;;4.60;0.80;;;19.40;74.80;;;;;;5003645;28;20100;-78
2021/06/26 10:21:31;;;;;;;7.28;1.33;;;19.30;74.80;;;;;;5030376;28;20392;-80
2021/06/26 10:23:59;;;;;;;2.13;0.80;;;19.10;75.50;;;;;;5014800;28;20038;-77
2021/06/26 10:26:26;;;;;;;7.78;1.63;;;19.00;75.60;;;;;;5030078;28;20044;-78
2021/06/26 10:28:59;;;;;;;2.47;0.52;;;19.00;75.90;;;;;;5014821;28;20096;-79
2021/06/26 10:31:30;;;;;;;2.75;0.75;;;19.30;76.00;;;;;;4998209;28;20477;-79
2021/06/26 10:34:16;;;;;;;4.25;0.82;;;19.40;75.80;;;;;;5029994;28;20030;-78
2021/06/26 10:36:51;;;;;;;4.45;0.73;;;19.60;75.20;;;;;;5030061;28;20117;-79
2021/06/26 10:39:22;;;;;;;4.93;0.82;;;19.80;74.90;;;;;;5029901;28;20026;-79
2021/06/26 10:42:02;;;;;;;3.47;0.57;;;19.90;74.70;;;;;;5029977;28;20032;-77
2021/06/26 10:44:46;;;;;;;3.80;0.90;;;19.90;74.10;;;;;;5029596;28;20030;-79
2021/06/26 10:47:13;;;;;;;2.33;1.10;;;19.90;73.80;;;;;;5014641;28;20097;-80
2021/06/26 10:49:39;;;;;;;4.15;0.80;;;19.80;74.50;;;;;;5030181;28;20068;-79
2021/06/26 10:52:10;;;;;;;5.35;1.45;;;19.70;73.70;;;;;;5014579;28;20022;-79
2021/06/26 10:54:36;;;;;;;3.28;1.20;;;19.50;73.90;;;;;;5029945;28;20088;-79
2021/06/26 10:57:06;;;;;;;5.88;1.10;;;19.40;73.80;;;;;;5013318;28;20030;-78
2021/06/26 10:59:33;;;;;;;1.05;0.50;;;19.50;74.10;;;;;;5029874;28;20120;-78
2021/06/26 11:02:07;;;;;;;2.22;0.85;;;19.50;74.20;;;;;;5014472;28;20041;-78
2021/06/26 11:04:33;;;;;;;1.48;0.70;;;19.70;74.30;;;;;;5026265;28;20025;-79
2021/06/26 11:07:13;;;;;;;2.13;0.65;;;19.80;73.80;;;;;;5028877;28;20101;-79
2021/06/26 11:09:50;;;;;;;;;;;20.00;73.70;;;;;;5009867;28;20496;-78
2021/06/26 11:12:20;;;;;;;9.50;0.77;;;20.30;74.20;;;;;;5011952;28;19933;-80
2021/06/26 11:14:56;;;;;;;4.40;0.90;;;20.50;73.90;;;;;;5012073;28;20030;-79
2021/06/26 11:17:32;;;;;;;4.93;0.80;;;20.80;72.90;;;;;;5000147;28;20025;-80
2021/06/26 11:19:58;;;;;;;4.05;1.35;;;21.00;72.00;;;;;;5013983;28;20030;-79
2021/06/26 11:22:24;;;;;;;1.92;0.98;;;21.10;71.40;;;;;;5012944;28;20025;-78
2021/06/26 11:24:50;;;;;;;3.78;0.60;;;21.10;70.90;;;;;;5042679;28;20041;-79
2021/06/26 11:27:20;;;;;;;2.03;0.52;;;21.00;70.60;;;;;;5032714;28;20026;-78
2021/06/26 11:29:48;;;;;;;6.45;0.60;;;20.80;69.90;;;;;;4992721;28;20037;-78
2021/06/26 11:32:20;;;;;;;4.68;0.70;;;20.60;69.90;;;;;;5009132;28;20094;-80
2021/06/26 11:34:58;;;;;;;3.35;0.68;;;20.50;70.10;;;;;;5023585;28;20033;-79
2021/06/26 11:37:41;;;;;;;3.67;0.70;;;20.30;69.70;;;;;;5004545;28;20489;-79
2021/06/26 11:40:13;;;;;;;4.22;0.70;;;20.20;69.40;;;;;;5011811;28;20442;-80
2021/06/26 11:42:51;;;;;;;11.70;1.23;;;20.00;69.70;;;;;;5012872;28;20026;-75
2021/06/26 11:45:22;;;;;;;4.70;0.57;;;19.80;70.10;;;;;;5027394;28;20080;-80
2021/06/26 11:47:48;;;;;;;5.25;1.25;;;19.80;70.40;;;;;;5012245;28;20072;-80
2021/06/26 11:50:19;;;;;;;8.18;1.08;;;19.70;70.20;;;;;;4996232;28;20365;-81
2021/06/26 11:52:46;;;;;;;2.72;0.80;;;19.60;70.10;;;;;;5025175;28;20026;-80
2021/06/26 11:55:12;;;;;;;2.13;0.80;;;19.40;70.20;;;;;;5025264;28;20058;-79
2021/06/26 11:57:38;;;;;;;6.53;1.00;;;19.30;70.40;;;;;;5025526;28;20030;-78
2021/06/26 12:00:07;;;;;;;3.45;0.77;;;19.20;70.80;;;;;;5028519;28;20437;-77
2021/06/26 12:02:40;;;;;;;2.67;0.82;;;19.10;70.90;;;;;;5013211;28;20025;-79
2021/06/26 12:05:07;;;;;;;2.58;1.02;;;19.20;71.10;;;;;;4998026;28;20058;-79
2021/06/26 12:07:34;;;;;;;2.45;0.85;;;19.30;71.30;;;;;;4998483;28;20109;-79
2021/06/26 12:10:05;;;;;;;3.22;0.90;;;19.50;71.20;;;;;;4991458;28;20074;-77
2021/06/26 12:12:36;;;;;;;3.80;0.80;;;19.50;70.70;;;;;;5008124;28;20026;-77
2021/06/26 12:15:06;;;;;;;2.45;0.65;;;19.30;70.60;;;;;;4999424;28;20026;-78
2021/06/26 12:17:32;;;;;;;2.95;0.75;;;19.30;70.60;;;;;;5012684;28;20042;-79
2021/06/26 12:20:06;;;;;;;2.13;0.60;;;19.20;70.80;;;;;;5044777;28;20084;-78
2021/06/26 12:22:32;;;;;;;2.38;0.70;;;19.30;70.80;;;;;;5012614;28;20058;-76
2021/06/26 12:25:33;;;;;;;2.55;0.80;;;19.50;70.60;;;;;;5012891;28;20060;-76
2021/06/26 12:28:00;;;;;;;4.85;1.10;;;19.50;70.30;;;;;;5024992;28;20521;-77
2021/06/26 12:30:26;;;;;;;3.13;0.80;;;19.40;70.20;;;;;;5000746;28;20093;-77
2021/06/26 12:33:09;;;;;;;2.78;0.80;;;19.20;70.30;;;;;;4995427;28;20034;-79
2021/06/26 12:35:36;;;;;;;2.65;1.10;;;18.90;70.60;;;;;;5028109;28;20029;-79
2021/06/26 12:38:04;;;;;;;2.78;0.70;;;18.80;71.10;;;;;;5023658;28;20081;-77
2021/06/26 12:40:38;;;;;;;1.35;0.60;;;18.80;71.20;;;;;;5029432;28;20022;-76
2021/06/26 12:43:14;;;;;;;4.43;1.20;;;18.70;71.30;;;;;;5004594;28;20026;-77
2021/06/26 12:45:53;;;;;;;2.65;1.30;;;18.60;71.30;;;;;;5010431;28;20121;-77
2021/06/26 12:48:26;;;;;;;2.83;1.05;;;18.50;72.00;;;;;;4991616;28;20030;-78